Time;durP1;ratioP1;P1;durP2;ratioP2;P2;SDS_P1;SDS_P2;PMS_P1;PMS_P2;Temp;Humidity;BMP_temperature;BMP_pressure;BME280_temperature;BME280_humidity;BME280_pressure;Samples;Min_cycle;Max_cycle;Signal;HPM_P1;HPM_P2
2022/01/06 00:01:36;;;;;;;67.43;4.97;;;;;;;;;;5075028;28;20222;-67
2022/01/06 00:04:03;;;;;;;61.40;5.60;;;;;;;;;;5074829;28;20292;-67
2022/01/06 00:06:32;;;;;;;61.05;4.70;;;;;;;;;;5074940;28;20213;-67
2022/01/06 00:09:01;;;;;;;67.63;5.78;;;;;;;;;;5074479;28;20709;-67
2022/01/06 00:11:28;;;;;;;64.63;4.97;;;;;;;;;;5074584;28;20225;-67
2022/01/06 00:14:01;;;;;;;67.25;4.50;;;;;;;;;;5074869;28;20296;-67
2022/01/06 00:16:38;;;;;;;63.00;4.60;;;;;;;;;;5074960;28;20651;-66
2022/01/06 00:24:34;;;;;;;63.13;5.28;;;;;;;;;;5074532;28;20307;-67
2022/01/06 00:27:01;;;;;;;61.13;4.88;;;;;;;;;;5074397;28;20225;-67
2022/01/06 00:29:28;;;;;;;60.78;4.50;;;;;;;;;;5074243;28;20588;-67
2022/01/06 00:31:57;;;;;;;63.05;5.00;;;;;;;;;;5074220;28;20232;-66
2022/01/06 00:34:24;;;;;;;61.05;4.82;;;;;;;;;;5074450;28;20209;-67
2022/01/06 00:36:51;;;;;;;61.25;4.85;;;;;;;;;;5074329;28;20228;-67
2022/01/06 00:39:18;;;;;;;64.30;5.40;;;;;;;;;;5074196;28;20206;-67
2022/01/06 00:41:45;;;;;;;60.35;4.65;;;;;;;;;;5074145;28;20264;-66
2022/01/06 00:44:14;;;;;;;63.03;4.82;;;;;;;;;;5074311;28;20293;-67
2022/01/06 00:46:41;;;;;;;60.78;4.63;;;;;;;;;;5074004;28;20696;-66
2022/01/06 00:49:09;;;;;;;61.58;4.72;;;;;;;;;;5073975;28;20233;-67
2022/01/06 00:51:37;;;;;;;60.88;4.80;;;;;;;;;;5074108;28;20312;-67
2022/01/06 00:54:04;;;;;;;68.25;4.97;;;;;;;;;;5073690;28;20293;-66
2022/01/06 00:56:31;;;;;;;64.43;5.00;;;;;;;;;;5073915;28;20209;-67
2022/01/06 00:58:58;;;;;;;63.42;4.65;;;;;;;;;;5073582;28;20703;-66
2022/01/06 01:01:25;;;;;;;63.00;4.60;;;;;;;;;;5073603;28;20659;-67
2022/01/06 01:03:52;;;;;;;68.68;4.97;;;;;;;;;;5073902;28;20206;-67
2022/01/06 01:06:21;;;;;;;64.13;5.32;;;;;;;;;;5073697;28;20309;-66
2022/01/06 01:08:48;;;;;;;63.85;4.13;;;;;;;;;;5073236;28;20279;-67
2022/01/06 01:11:15;;;;;;;73.60;5.30;;;;;;;;;;5073568;28;20229;-67
2022/01/06 01:13:54;;;;;;;60.58;4.80;;;;;;;;;;5073585;28;20210;-66
2022/01/06 01:16:25;;;;;;;61.95;4.35;;;;;;;;;;5073670;28;20202;-67
2022/01/06 01:18:52;;;;;;;64.63;5.00;;;;;;;;;;5073295;28;20205;-67
2022/01/06 01:21:22;;;;;;;72.63;5.40;;;;;;;;;;5073464;28;20433;-66
2022/01/06 01:23:49;;;;;;;70.32;5.20;;;;;;;;;;5073440;28;20216;-67
2022/01/06 01:26:16;;;;;;;61.85;4.20;;;;;;;;;;5073169;28;20668;-67
2022/01/06 01:28:46;;;;;;;60.95;4.10;;;;;;;;;;5073298;28;20232;-67
2022/01/06 01:31:24;;;;;;;63.15;4.97;;;;;;;;;;5073208;28;20644;-67
2022/01/06 01:33:52;;;;;;;62.47;4.95;;;;;;;;;;5073175;28;20237;-67
2022/01/06 01:36:21;;;;;;;61.40;4.95;;;;;;;;;;5073039;28;20206;-66
2022/01/06 01:38:48;;;;;;;64.10;4.80;;;;;;;;;;5072637;28;20202;-67
2022/01/06 01:41:15;;;;;;;59.83;4.63;;;;;;;;;;5073075;28;20221;-67
2022/01/06 01:43:42;;;;;;;64.95;4.63;;;;;;;;;;5073070;28;20295;-67
2022/01/06 01:46:13;;;;;;;62.30;4.50;;;;;;;;;;5072992;28;20213;-67
2022/01/06 01:48:44;;;;;;;64.18;5.40;;;;;;;;;;5072546;28;20225;-66
2022/01/06 01:51:12;;;;;;;61.05;5.00;;;;;;;;;;5072518;28;20229;-66
2022/01/06 01:53:40;;;;;;;64.20;4.55;;;;;;;;;;5072875;28;20208;-67
2022/01/06 01:56:08;;;;;;;71.03;5.03;;;;;;;;;;5072572;28;20208;-67
2022/01/06 01:58:36;;;;;;;65.35;4.35;;;;;;;;;;5072270;28;20201;-66
2022/01/06 02:01:03;;;;;;;62.90;5.20;;;;;;;;;;5072626;28;20225;-67
2022/01/06 02:03:31;;;;;;;61.97;5.78;;;;;;;;;;5072441;28;20248;-67
2022/01/06 02:05:58;;;;;;;65.55;5.07;;;;;;;;;;5070058;28;20704;-67
2022/01/06 02:08:25;;;;;;;62.58;4.97;;;;;;;;;;5072249;28;20232;-67
2022/01/06 02:10:53;;;;;;;66.55;4.88;;;;;;;;;;5072563;28;20238;-67
2022/01/06 02:13:23;;;;;;;72.15;5.65;;;;;;;;;;5072450;28;20585;-67
2022/01/06 02:15:51;;;;;;;70.35;5.63;;;;;;;;;;5072624;28;20210;-67
2022/01/06 02:18:18;;;;;;;61.90;5.15;;;;;;;;;;5072079;28;20240;-67
2022/01/06 02:20:46;;;;;;;63.67;5.38;;;;;;;;;;5072391;28;20229;-67
2022/01/06 02:23:13;;;;;;;65.88;5.03;;;;;;;;;;5072290;28;20202;-67
2022/01/06 02:25:40;;;;;;;62.05;4.80;;;;;;;;;;5072163;28;20205;-67
2022/01/06 02:28:08;;;;;;;69.30;5.15;;;;;;;;;;5071777;28;20274;-67
2022/01/06 02:30:36;;;;;;;63.15;5.05;;;;;;;;;;5071986;28;20292;-67
2022/01/06 02:33:06;;;;;;;64.10;5.53;;;;;;;;;;5072172;28;20210;-67
2022/01/06 02:35:33;;;;;;;60.20;4.85;;;;;;;;;;5072137;28;20228;-67
2022/01/06 02:38:02;;;;;;;62.45;4.60;;;;;;;;;;5071819;28;20644;-67
2022/01/06 02:40:29;;;;;;;60.50;4.85;;;;;;;;;;5071905;28;20205;-67
2022/01/06 02:42:58;;;;;;;63.72;5.05;;;;;;;;;;5072209;28;20208;-67
2022/01/06 02:45:27;;;;;;;62.63;5.13;;;;;;;;;;5071906;28;20205;-67
2022/01/06 02:47:54;;;;;;;62.85;5.70;;;;;;;;;;5071807;28;20216;-67
2022/01/06 02:50:21;;;;;;;63.85;6.60;;;;;;;;;;5072048;28;20296;-67
2022/01/06 02:52:48;;;;;;;61.88;4.75;;;;;;;;;;5071948;28;20687;-67
2022/01/06 02:55:17;;;;;;;64.28;4.95;;;;;;;;;;5071706;28;20643;-67
2022/01/06 02:57:45;;;;;;;70.82;5.60;;;;;;;;;;5071756;28;20648;-67
2022/01/06 03:00:14;;;;;;;64.45;4.85;;;;;;;;;;5071847;28;20678;-67
2022/01/06 03:02:43;;;;;;;63.75;5.05;;;;;;;;;;5071670;28;20233;-66
2022/01/06 03:05:10;;;;;;;60.53;5.13;;;;;;;;;;5071658;28;20213;-67
2022/01/06 03:07:37;;;;;;;63.58;4.63;;;;;;;;;;5071471;28;20296;-67
2022/01/06 03:10:07;;;;;;;65.57;5.38;;;;;;;;;;5071654;28;20229;-66
2022/01/06 03:12:39;;;;;;;63.55;4.65;;;;;;;;;;5071872;28;20275;-67
2022/01/06 03:15:07;;;;;;;61.10;4.85;;;;;;;;;;5071972;28;20213;-67
2022/01/06 03:17:34;;;;;;;66.07;5.10;;;;;;;;;;5071407;28;20209;-66
2022/01/06 03:20:01;;;;;;;65.38;5.47;;;;;;;;;;5075504;28;20499;-67
2022/01/06 03:22:28;;;;;;;65.18;4.65;;;;;;;;;;5075380;28;20229;-66
2022/01/06 03:24:55;;;;;;;59.80;4.15;;;;;;;;;;5075814;28;20551;-67
2022/01/06 03:27:23;;;;;;;61.40;4.70;;;;;;;;;;5075414;28;20312;-67
2022/01/06 03:29:51;;;;;;;63.20;5.40;;;;;;;;;;5075506;28;20229;-67
2022/01/06 03:32:18;;;;;;;62.05;4.90;;;;;;;;;;5075442;28;20229;-66
2022/01/06 03:34:46;;;;;;;61.10;4.55;;;;;;;;;;5075346;28;20211;-67
2022/01/06 03:37:13;;;;;;;62.75;5.43;;;;;;;;;;5075353;28;20205;-67
2022/01/06 03:39:41;;;;;;;61.42;5.20;;;;;;;;;;5075672;28;20201;-67
2022/01/06 03:42:08;;;;;;;61.50;4.30;;;;;;;;;;5075120;28;20221;-67
2022/01/06 03:44:36;;;;;;;61.38;5.45;;;;;;;;;;5075163;28;20292;-67
2022/01/06 03:47:05;;;;;;;63.55;4.65;;;;;;;;;;5075174;28;20212;-67
2022/01/06 03:49:32;;;;;;;60.88;4.78;;;;;;;;;;5074769;28;20831;-67
2022/01/06 03:51:59;;;;;;;61.83;4.85;;;;;;;;;;5075201;28;20268;-67
2022/01/06 03:54:26;;;;;;;60.85;4.50;;;;;;;;;;5075095;28;20202;-67
2022/01/06 03:56:53;;;;;;;63.67;5.03;;;;;;;;;;5075110;28;20208;-67
2022/01/06 03:59:21;;;;;;;65.13;5.50;;;;;;;;;;5074727;28;20677;-66
2022/01/06 04:01:48;;;;;;;71.32;5.53;;;;;;;;;;5074820;28;20225;-67
2022/01/06 04:04:16;;;;;;;60.40;4.43;;;;;;;;;;5074975;28;20630;-67
2022/01/06 04:06:44;;;;;;;61.28;5.13;;;;;;;;;;5074805;28;20213;-67
2022/01/06 04:09:11;;;;;;;63.15;4.38;;;;;;;;;;5074489;28;20221;-66
2022/01/06 04:11:38;;;;;;;63.53;5.40;;;;;;;;;;5074777;28;20581;-67
2022/01/06 04:14:05;;;;;;;64.18;5.60;;;;;;;;;;5074613;28;20297;-66
2022/01/06 04:16:35;;;;;;;62.90;5.80;;;;;;;;;;5074797;28;20237;-67
2022/01/06 04:19:03;;;;;;;62.15;5.32;;;;;;;;;;5074568;28;20608;-67
2022/01/06 04:21:32;;;;;;;63.03;4.95;;;;;;;;;;5074703;28;20230;-66
2022/01/06 04:23:59;;;;;;;63.72;5.20;;;;;;;;;;5074392;28;20217;-66
2022/01/06 04:26:26;;;;;;;65.10;6.57;;;;;;;;;;5074578;28;20297;-66
2022/01/06 04:28:54;;;;;;;61.22;4.70;;;;;;;;;;5073481;28;20241;-67
2022/01/06 04:31:21;;;;;;;61.92;5.40;;;;;;;;;;5074553;28;20612;-66
2022/01/06 04:33:48;;;;;;;61.42;5.25;;;;;;;;;;5074492;28;20206;-67
2022/01/06 04:36:15;;;;;;;62.17;4.70;;;;;;;;;;5074258;28;20201;-66
2022/01/06 04:38:44;;;;;;;62.00;5.03;;;;;;;;;;5073898;28;20697;-66
2022/01/06 04:41:11;;;;;;;60.97;4.70;;;;;;;;;;5074098;28;20739;-67
2022/01/06 04:43:38;;;;;;;64.72;4.90;;;;;;;;;;5074029;28;20208;-67
2022/01/06 04:46:05;;;;;;;67.22;5.10;;;;;;;;;;5074050;28;20210;-66
2022/01/06 04:48:35;;;;;;;61.50;4.93;;;;;;;;;;5073780;28;20205;-67
2022/01/06 04:51:02;;;;;;;62.00;5.45;;;;;;;;;;5073903;28;20268;-66
2022/01/06 04:53:29;;;;;;;60.28;5.03;;;;;;;;;;5073890;28;20213;-66
2022/01/06 04:55:59;;;;;;;63.55;5.40;;;;;;;;;;5073947;28;20205;-66
2022/01/06 04:58:26;;;;;;;64.20;5.60;;;;;;;;;;5073851;28;20205;-66
2022/01/06 05:00:54;;;;;;;65.95;5.13;;;;;;;;;;5073709;28;20732;-67
2022/01/06 05:03:21;;;;;;;64.22;4.70;;;;;;;;;;5073941;28;20233;-67
2022/01/06 05:05:48;;;;;;;65.82;5.65;;;;;;;;;;5073630;28;20210;-68
2022/01/06 05:08:15;;;;;;;71.13;5.60;;;;;;;;;;5073447;28;20202;-68
2022/01/06 05:10:42;;;;;;;60.92;5.18;;;;;;;;;;5073412;28;20232;-67
2022/01/06 05:13:11;;;;;;;62.00;5.22;;;;;;;;;;5073784;28;20209;-67
2022/01/06 05:15:38;;;;;;;63.45;5.20;;;;;;;;;;5073662;28;20206;-67
2022/01/06 05:18:05;;;;;;;63.60;5.32;;;;;;;;;;5073525;28;20296;-66
2022/01/06 05:20:32;;;;;;;60.25;5.10;;;;;;;;;;5073368;28;20240;-67
2022/01/06 05:22:59;;;;;;;66.38;5.22;;;;;;;;;;5073254;28;20292;-67
2022/01/06 05:25:28;;;;;;;64.13;5.20;;;;;;;;;;5073259;28;20209;-67
2022/01/06 05:27:56;;;;;;;60.80;5.00;;;;;;;;;;5072935;28;20217;-67
2022/01/06 05:30:25;;;;;;;63.05;5.10;;;;;;;;;;5073214;28;20225;-68
2022/01/06 05:32:52;;;;;;;62.50;5.22;;;;;;;;;;5073256;28;20211;-67
2022/01/06 05:35:19;;;;;;;60.08;5.03;;;;;;;;;;5073155;28;20205;-67
2022/01/06 05:37:47;;;;;;;61.65;4.57;;;;;;;;;;5072912;28;20212;-67
2022/01/06 05:40:14;;;;;;;62.35;5.53;;;;;;;;;;5072516;28;20297;-67
2022/01/06 05:42:42;;;;;;;63.40;4.78;;;;;;;;;;5072528;28;20317;-67
2022/01/06 05:45:09;;;;;;;65.05;5.07;;;;;;;;;;5073138;28;20205;-67
2022/01/06 05:47:38;;;;;;;61.28;5.50;;;;;;;;;;5072811;28;20206;-67
2022/01/06 05:50:06;;;;;;;62.13;4.93;;;;;;;;;;5072919;28;20225;-68
2022/01/06 05:52:33;;;;;;;65.97;5.43;;;;;;;;;;5072927;28;20230;-67
2022/01/06 05:55:00;;;;;;;60.28;4.85;;;;;;;;;;5073084;28;20214;-67
2022/01/06 05:57:27;;;;;;;67.78;6.32;;;;;;;;;;5072525;28;20580;-67
2022/01/06 05:59:54;;;;;;;62.60;6.10;;;;;;;;;;5072697;28;20578;-67
2022/01/06 06:02:21;;;;;;;65.95;6.25;;;;;;;;;;5072654;28;20226;-68
2022/01/06 06:04:50;;;;;;;69.05;7.45;;;;;;;;;;5072413;28;20212;-67
2022/01/06 06:07:19;;;;;;;67.22;7.82;;;;;;;;;;5072670;28;20238;-68
2022/01/06 06:09:46;;;;;;;67.72;8.18;;;;;;;;;;5072583;28;20233;-67
2022/01/06 06:12:14;;;;;;;66.25;7.95;;;;;;;;;;5072747;28;20221;-68
2022/01/06 06:14:41;;;;;;;69.03;5.88;;;;;;;;;;5072968;28;20588;-68
2022/01/06 06:17:08;;;;;;;65.43;5.63;;;;;;;;;;5073757;28;20682;-67
2022/01/06 06:19:35;;;;;;;61.85;5.40;;;;;;;;;;5081786;28;20228;-67
2022/01/06 06:22:04;;;;;;;68.25;6.25;;;;;;;;;;5081753;28;20227;-67
2022/01/06 06:24:31;;;;;;;66.97;8.63;;;;;;;;;;5081847;28;20206;-68
2022/01/06 06:26:58;;;;;;;64.43;9.40;;;;;;;;;;5082427;28;20273;-68
2022/01/06 06:29:25;;;;;;;64.63;6.55;;;;;;;;;;5078741;28;20221;-67
2022/01/06 06:31:53;;;;;;;64.32;5.57;;;;;;;;;;5072004;28;20231;-66
2022/01/06 06:34:20;;;;;;;65.93;5.25;;;;;;;;;;5072076;28;20205;-67
2022/01/06 06:36:47;;;;;;;62.53;5.95;;;;;;;;;;5072321;28;20296;-67
2022/01/06 06:39:16;;;;;;;67.72;6.20;;;;;;;;;;5072019;28;20288;-68
2022/01/06 06:41:43;;;;;;;65.75;6.40;;;;;;;;;;5072242;28;20646;-68
2022/01/06 06:44:10;;;;;;;63.10;5.32;;;;;;;;;;5071920;28;20422;-67
2022/01/06 06:46:37;;;;;;;63.00;6.18;;;;;;;;;;5071938;28;20647;-67
2022/01/06 06:49:04;;;;;;;62.40;5.80;;;;;;;;;;5071790;28;20292;-67
2022/01/06 06:51:31;;;;;;;64.72;6.25;;;;;;;;;;5071870;28;20595;-68
2022/01/06 06:53:59;;;;;;;63.30;6.15;;;;;;;;;;5071734;28;20201;-68
2022/01/06 06:56:27;;;;;;;63.20;5.15;;;;;;;;;;5072084;28;20205;-67
2022/01/06 06:58:54;;;;;;;69.80;7.15;;;;;;;;;;5071470;28;20217;-67
2022/01/06 07:01:21;;;;;;;67.88;7.32;;;;;;;;;;5072360;28;20318;-67
2022/01/06 07:03:48;;;;;;;67.97;8.50;;;;;;;;;;5071912;28;20288;-68
2022/01/06 07:06:16;;;;;;;66.70;8.90;;;;;;;;;;5071868;28;20223;-67
2022/01/06 07:08:43;;;;;;;65.05;8.48;;;;;;;;;;5071702;28;20296;-67
2022/01/06 07:11:10;;;;;;;72.25;11.57;;;;;;;;;;5071748;28;20293;-67
2022/01/06 07:13:38;;;;;;;68.35;9.40;;;;;;;;;;5071809;28;20209;-67
2022/01/06 07:16:06;;;;;;;67.90;9.60;;;;;;;;;;5072123;28;20210;-68
2022/01/06 07:18:33;;;;;;;63.65;7.05;;;;;;;;;;5071658;28;20259;-68
2022/01/06 07:21:00;;;;;;;68.88;8.13;;;;;;;;;;5071853;28;20221;-67
2022/01/06 07:23:27;;;;;;;63.53;7.95;;;;;;;;;;5072200;28;20232;-68
2022/01/06 07:25:55;;;;;;;66.75;9.15;;;;;;;;;;5071850;28;20206;-67
2022/01/06 07:28:22;;;;;;;74.95;10.40;;;;;;;;;;5071510;28;20205;-68
2022/01/06 07:30:50;;;;;;;65.45;7.88;;;;;;;;;;5071612;28;20784;-67
2022/01/06 07:33:17;;;;;;;63.25;7.18;;;;;;;;;;5071752;28;20684;-68
2022/01/06 07:35:44;;;;;;;64.22;7.25;;;;;;;;;;5071894;28;20214;-67
2022/01/06 07:38:12;;;;;;;63.60;6.75;;;;;;;;;;5071323;28;20510;-67
2022/01/06 07:40:39;;;;;;;64.95;7.90;;;;;;;;;;5071644;28;20297;-67
2022/01/06 07:43:06;;;;;;;65.75;6.93;;;;;;;;;;5071617;28;20304;-67
2022/01/06 07:45:33;;;;;;;64.53;6.85;;;;;;;;;;5071943;28;20215;-67
2022/01/06 07:48:03;;;;;;;62.15;6.30;;;;;;;;;;5071438;28;20223;-68
2022/01/06 07:50:31;;;;;;;63.53;6.97;;;;;;;;;;5071618;28;20790;-68
2022/01/06 07:52:59;;;;;;;63.83;6.63;;;;;;;;;;5071368;28;20296;-67
2022/01/06 07:55:26;;;;;;;70.53;7.18;;;;;;;;;;5071349;28;20212;-67
2022/01/06 07:57:54;;;;;;;65.53;7.05;;;;;;;;;;5071061;28;20228;-67
2022/01/06 08:00:21;;;;;;;67.28;6.35;;;;;;;;;;5071749;28;20209;-68
2022/01/06 08:02:48;;;;;;;64.68;6.43;;;;;;;;;;5068432;28;20217;-67
2022/01/06 08:05:19;;;;;;;65.53;9.55;;;;;;;;;;5072784;28;20210;-67
2022/01/06 08:07:46;;;;;;;101.00;27.55;;;;;;;;;;5073788;28;20213;-67
2022/01/06 08:10:14;;;;;;;88.88;21.92;;;;;;;;;;5074431;28;20232;-67
2022/01/06 08:12:41;;;;;;;93.65;25.95;;;;;;;;;;5074154;28;20304;-67
2022/01/06 08:15:09;;;;;;;91.15;25.45;;;;;;;;;;5074136;28;20678;-67
2022/01/06 08:17:37;;;;;;;82.35;20.15;;;;;;;;;;5073994;28;20206;-67
2022/01/06 08:20:04;;;;;;;75.78;16.48;;;;;;;;;;5074615;28;20202;-67
2022/01/06 08:22:33;;;;;;;77.35;15.73;;;;;;;;;;5073728;28;20275;-68
2022/01/06 08:25:00;;;;;;;68.20;11.40;;;;;;;;;;5073990;28;20216;-68
2022/01/06 08:27:27;;;;;;;64.13;8.00;;;;;;;;;;5073504;28;20296;-68
2022/01/06 08:29:54;;;;;;;69.03;8.30;;;;;;;;;;5073756;28;20312;-69
2022/01/06 08:32:22;;;;;;;67.50;7.05;;;;;;;;;;5073580;28;20312;-68
2022/01/06 08:34:49;;;;;;;75.68;9.13;;;;;;;;;;5073516;28;20673;-67
2022/01/06 08:37:16;;;;;;;67.80;7.80;;;;;;;;;;5073406;28;20206;-67
2022/01/06 08:39:45;;;;;;;66.00;7.43;;;;;;;;;;5073891;28;20678;-68
2022/01/06 08:42:12;;;;;;;65.43;6.93;;;;;;;;;;5071485;28;20225;-67
2022/01/06 08:44:41;;;;;;;70.70;8.25;;;;;;;;;;5074183;28;20573;-67
2022/01/06 08:47:09;;;;;;;69.70;9.75;;;;;;;;;;5074094;28;20209;-67
2022/01/06 08:49:36;;;;;;;65.80;9.00;;;;;;;;;;5073921;28;20209;-67
2022/01/06 08:52:04;;;;;;;71.03;9.68;;;;;;;;;;5073780;28;20225;-67
2022/01/06 08:54:31;;;;;;;66.22;7.90;;;;;;;;;;5073952;28;20213;-66
2022/01/06 08:57:00;;;;;;;64.82;7.18;;;;;;;;;;5073637;28;20670;-67
2022/01/06 08:59:27;;;;;;;66.32;6.45;;;;;;;;;;5073548;28;20214;-67
2022/01/06 09:01:54;;;;;;;66.88;6.10;;;;;;;;;;5073212;28;20217;-67
2022/01/06 09:04:21;;;;;;;68.25;7.05;;;;;;;;;;5073598;28;20251;-67
2022/01/06 09:06:49;;;;;;;65.40;7.05;;;;;;;;;;5073711;28;20213;-67
2022/01/06 09:09:16;;;;;;;70.65;7.30;;;;;;;;;;5073551;28;20209;-67
2022/01/06 09:11:43;;;;;;;64.82;6.88;;;;;;;;;;5072871;28;20233;-66
2022/01/06 09:14:12;;;;;;;70.25;7.72;;;;;;;;;;5072756;28;20232;-67
2022/01/06 09:16:40;;;;;;;64.05;6.40;;;;;;;;;;5073360;28;20208;-67
2022/01/06 09:19:07;;;;;;;65.13;6.57;;;;;;;;;;5073277;28;20212;-67
2022/01/06 09:21:34;;;;;;;64.45;6.35;;;;;;;;;;5073622;28;20221;-68
2022/01/06 09:24:06;;;;;;;65.72;6.70;;;;;;;;;;5073381;28;20618;-67
2022/01/06 09:26:33;;;;;;;64.72;6.10;;;;;;;;;;5073646;28;20858;-68
2022/01/06 09:29:00;;;;;;;64.63;7.10;;;;;;;;;;5072943;28;20212;-67
2022/01/06 09:31:29;;;;;;;63.78;7.57;;;;;;;;;;5073361;28;20705;-68
2022/01/06 09:33:56;;;;;;;67.95;8.57;;;;;;;;;;5073353;28;20580;-68
2022/01/06 09:36:23;;;;;;;74.13;9.52;;;;;;;;;;5073327;28;20297;-68
2022/01/06 09:38:51;;;;;;;70.53;9.50;;;;;;;;;;5072671;28;20228;-68
2022/01/06 09:41:18;;;;;;;70.03;8.35;;;;;;;;;;5072825;28;20246;-67
2022/01/06 09:43:45;;;;;;;71.65;11.25;;;;;;;;;;5072928;28;20300;-68
2022/01/06 09:46:13;;;;;;;72.00;9.00;;;;;;;;;;5073238;28;20201;-67
2022/01/06 09:48:42;;;;;;;67.47;7.57;;;;;;;;;;5072585;28;20650;-68
2022/01/06 09:51:10;;;;;;;64.63;8.02;;;;;;;;;;5072924;28;20229;-67
2022/01/06 09:53:38;;;;;;;69.13;8.30;;;;;;;;;;5072654;28;20209;-68
2022/01/06 09:56:05;;;;;;;67.15;7.65;;;;;;;;;;5072613;28;20701;-68
2022/01/06 09:58:33;;;;;;;67.65;7.50;;;;;;;;;;5072364;28;20669;-67
2022/01/06 10:01:00;;;;;;;64.50;6.57;;;;;;;;;;5072649;28;20308;-68
2022/01/06 10:03:34;;;;;;;64.30;5.63;;;;;;;;;;5072617;28;20223;-67
2022/01/06 10:06:11;;;;;;;64.25;6.40;;;;;;;;;;5072734;28;20224;-67
2022/01/06 10:08:38;;;;;;;62.42;6.30;;;;;;;;;;5072446;28;20670;-68
2022/01/06 10:11:09;;;;;;;68.05;6.03;;;;;;;;;;5072569;28;20264;-67
2022/01/06 10:13:37;;;;;;;68.28;5.82;;;;;;;;;;5072585;28;20209;-68
2022/01/06 10:16:12;;;;;;;64.88;5.82;;;;;;;;;;5072896;28;20201;-68
2022/01/06 10:18:41;;;;;;;63.35;6.10;;;;;;;;;;5072116;28;20225;-68
2022/01/06 10:21:14;;;;;;;67.07;7.30;;;;;;;;;;5072425;28;20218;-68
2022/01/06 10:23:41;;;;;;;65.75;6.72;;;;;;;;;;5072725;28;20205;-67
2022/01/06 10:26:13;;;;;;;64.90;5.90;;;;;;;;;;5072503;28;20700;-68
2022/01/06 10:28:41;;;;;;;68.68;7.63;;;;;;;;;;5071796;28;20216;-68
2022/01/06 10:31:09;;;;;;;64.18;5.40;;;;;;;;;;5072267;28;20239;-68
2022/01/06 10:33:38;;;;;;;65.55;6.20;;;;;;;;;;5072091;28;20551;-68
2022/01/06 10:36:06;;;;;;;64.30;6.33;;;;;;;;;;5072465;28;20233;-68
2022/01/06 10:38:35;;;;;;;66.90;5.53;;;;;;;;;;5071778;28;20944;-68
2022/01/06 10:41:12;;;;;;;62.47;4.67;;;;;;;;;;5072021;28;20563;-68
2022/01/06 10:43:39;;;;;;;75.23;10.20;;;;;;;;;;5072494;28;20864;-66
2022/01/06 10:46:07;;;;;;;93.07;14.90;;;;;;;;;;5071808;28;20476;-66
2022/01/06 10:48:34;;;;;;;65.57;6.03;;;;;;;;;;5071811;28;20455;-66
2022/01/06 10:51:02;;;;;;;62.67;4.80;;;;;;;;;;5071982;28;20575;-66
2022/01/06 10:53:30;;;;;;;62.00;5.00;;;;;;;;;;5071900;28;20451;-65
2022/01/06 10:55:58;;;;;;;67.80;6.00;;;;;;;;;;5071778;28;20538;-66
2022/01/06 10:58:26;;;;;;;72.23;6.20;;;;;;;;;;5061537;28;20463;-66
2022/01/06 11:00:56;;;;;;;64.27;5.10;;;;;;;;;;5052641;28;20469;-66
2022/01/06 11:03:24;;;;;;;65.00;5.17;;;;;;;;;;5052639;28;20825;-65
2022/01/06 11:05:52;;;;;;;66.23;6.70;;;;;;;;;;5051505;28;20460;-67
2022/01/06 11:08:20;;;;;;;63.30;5.07;;;;;;;;;;5052136;28;20627;-69
2022/01/06 11:10:51;;;;;;;64.97;5.63;;;;;;;;;;5052746;28;20485;-67
2022/01/06 11:13:19;;;;;;;62.47;4.17;;;;;;;;;;5051676;28;20448;-65
2022/01/06 11:15:46;;;;;;;66.20;4.80;;;;;;;;;;5051962;28;20519;-66
2022/01/06 11:18:18;;;;;;;64.10;4.53;;;;;;;;;;5051243;28;20949;-66
2022/01/06 11:20:45;;;;;;;68.97;5.37;;;;;;;;;;5051442;28;20475;-66
2022/01/06 11:23:20;;;;;;;62.20;5.90;;;;;;;;;;5051777;28;20551;-66
2022/01/06 11:25:47;;;;;;;65.70;6.70;;;;;;;;;;5051364;28;20983;-68
2022/01/06 11:28:15;;;;;;;61.30;4.53;;;;;;;;;;5051354;28;20459;-67
2022/01/06 11:30:45;;;;;;;67.72;7.57;;;;;;;;;;5051992;28;20455;-68
2022/01/06 11:33:13;;;;;;;64.85;5.75;;;;;;;;;;5052437;28;20210;-68
2022/01/06 11:35:50;;;;;;;65.63;4.97;;;;;;;;;;5051933;28;20216;-67
2022/01/06 11:38:19;;;;;;;68.32;4.60;;;;;;;;;;5050946;28;20214;-67
2022/01/06 11:40:47;;;;;;;63.28;4.05;;;;;;;;;;5055538;28;20276;-65
2022/01/06 11:43:14;;;;;;;64.85;4.20;;;;;;;;;;5056553;28;20297;-66
2022/01/06 11:45:41;;;;;;;60.67;4.07;;;;;;;;;;5055345;28;20210;-66
2022/01/06 11:48:10;;;;;;;61.08;4.47;;;;;;;;;;5053155;28;20206;-66
2022/01/06 11:50:38;;;;;;;73.10;4.85;;;;;;;;;;5055254;28;20206;-66
2022/01/06 11:53:06;;;;;;;64.03;5.35;;;;;;;;;;5054810;28;20206;-66
2022/01/06 11:55:34;;;;;;;59.40;4.22;;;;;;;;;;5054877;28;20629;-66
2022/01/06 11:58:08;;;;;;;77.53;8.50;;;;;;;;;;5054297;28;20202;-67
2022/01/06 12:00:37;;;;;;;68.10;7.10;;;;;;;;;;5054654;28;20448;-67
2022/01/06 12:03:05;;;;;;;75.43;7.70;;;;;;;;;;5054386;28;20453;-66
2022/01/06 12:05:43;;;;;;;65.00;4.80;;;;;;;;;;5054769;28;20503;-67
2022/01/06 12:08:10;;;;;;;67.53;5.90;;;;;;;;;;5054317;28;20501;-67
2022/01/06 12:10:41;;;;;;;61.80;4.77;;;;;;;;;;5054245;28;20909;-67
2022/01/06 12:13:08;;;;;;;71.77;6.20;;;;;;;;;;5053934;28;20452;-67
2022/01/06 12:15:46;;;;;;;64.47;5.20;;;;;;;;;;5053811;28;20451;-67
2022/01/06 12:18:13;;;;;;;64.57;4.50;;;;;;;;;;5056470;28;20454;-67
2022/01/06 12:20:40;;;;;;;63.30;4.07;;;;;;;;;;5073750;28;20448;-66
2022/01/06 12:23:09;;;;;;;64.40;4.37;;;;;;;;;;5074743;28;20865;-66
2022/01/06 12:25:36;;;;;;;65.00;4.40;;;;;;;;;;5074517;28;20448;-67
2022/01/06 12:28:03;;;;;;;65.57;4.30;;;;;;;;;;5074038;28;20826;-67
2022/01/06 12:30:35;;;;;;;62.57;4.63;;;;;;;;;;5074622;28;20447;-66
2022/01/06 12:33:06;;;;;;;64.27;5.03;;;;;;;;;;5074512;28;20595;-67
2022/01/06 12:35:40;;;;;;;65.07;5.50;;;;;;;;;;5074351;28;20454;-67
2022/01/06 12:38:09;;;;;;;64.73;5.37;;;;;;;;;;5074257;28;20455;-66
2022/01/06 12:40:38;;;;;;;63.87;4.43;;;;;;;;;;5074561;28;20543;-67
2022/01/06 12:43:15;;;;;;;63.73;4.80;;;;;;;;;;5074081;28;20527;-67
2022/01/06 12:45:43;;;;;;;61.90;4.03;;;;;;;;;;5074250;28;20830;-67
2022/01/06 12:48:10;;;;;;;59.80;3.80;;;;;;;;;;5077439;28;20451;-67
2022/01/06 12:50:44;;;;;;;62.77;4.20;;;;;;;;;;5063283;28;20488;-67
2022/01/06 12:53:24;;;;;;;62.67;3.87;;;;;;;;;;5057099;28;21077;-67
2022/01/06 12:55:51;;;;;;;61.07;3.90;;;;;;;;;;5057979;28;20462;-67
2022/01/06 12:58:24;;;;;;;63.57;4.13;;;;;;;;;;5057146;28;20531;-66
2022/01/06 13:00:53;;;;;;;60.70;3.20;;;;;;;;;;5058042;28;20559;-66
2022/01/06 13:03:26;;;;;;;62.10;4.97;;;;;;;;;;5057786;28;20536;-67
2022/01/06 13:05:54;;;;;;;67.83;6.40;;;;;;;;;;5057029;28;20457;-66
2022/01/06 13:08:22;;;;;;;66.40;6.30;;;;;;;;;;5056883;28;20488;-66
2022/01/06 13:10:49;;;;;;;64.57;6.87;;;;;;;;;;5056692;28;20507;-66
2022/01/06 13:13:16;;;;;;;63.20;4.57;;;;;;;;;;5057546;28;20488;-66
2022/01/06 13:15:43;;;;;;;66.00;7.00;;;;;;;;;;5057299;28;20448;-67
2022/01/06 13:18:11;;;;;;;66.87;6.20;;;;;;;;;;5055861;28;20453;-67
2022/01/06 13:20:40;;;;;;;62.80;4.67;;;;;;;;;;5057213;28;20544;-66
2022/01/06 13:26:07;;;;;;;61.87;5.33;;;;;;;;;;5078180;28;20444;-67
2022/01/06 13:28:34;;;;;;;64.53;6.50;;;;;;;;;;5078213;28;20448;-65
2022/01/06 13:31:01;;;;;;;64.07;5.20;;;;;;;;;;5078505;28;20998;-66
2022/01/06 13:33:31;;;;;;;66.97;4.80;;;;;;;;;;5078014;28;20457;-66
2022/01/06 13:35:59;;;;;;;63.60;5.00;;;;;;;;;;5078863;28;20488;-67
2022/01/06 13:38:27;;;;;;;70.43;7.60;;;;;;;;;;5078630;28;20480;-65
2022/01/06 13:40:55;;;;;;;63.10;5.10;;;;;;;;;;5077595;28;20499;-66
2022/01/06 13:43:24;;;;;;;66.47;5.73;;;;;;;;;;5077229;28;20536;-67
2022/01/06 13:45:51;;;;;;;64.47;4.57;;;;;;;;;;5078978;28;20827;-66
2022/01/06 13:48:38;;;;;;;65.30;4.38;;;;;;;;;;5077759;28;20910;-65
2022/01/06 13:51:12;;;;;;;65.73;5.70;;;;;;;;;;5077972;28;20227;-66
2022/01/06 13:53:42;;;;;;;61.30;4.75;;;;;;;;;;5076724;28;20456;-70
2022/01/06 13:56:10;;;;;;;61.15;4.40;;;;;;;;;;5076210;28;20214;-65
2022/01/06 13:58:39;;;;;;;67.63;7.40;;;;;;;;;;5077758;28;20206;-66
2022/01/06 14:01:07;;;;;;;65.23;6.13;;;;;;;;;;5079679;28;20583;-67
2022/01/06 14:03:34;;;;;;;63.00;6.70;;;;;;;;;;5077577;28;20448;-66
2022/01/06 14:06:02;;;;;;;64.20;5.80;;;;;;;;;;5076060;28;20492;-66
2022/01/06 14:08:29;;;;;;;69.43;7.53;;;;;;;;;;5074995;28;20487;-67
2022/01/06 14:10:57;;;;;;;74.43;9.70;;;;;;;;;;5078038;28;20478;-67
2022/01/06 14:13:24;;;;;;;76.00;8.70;;;;;;;;;;5076716;28;21011;-66
2022/01/06 14:15:52;;;;;;;64.80;6.80;;;;;;;;;;5073324;28;20538;-66
2022/01/06 14:18:20;;;;;;;69.70;8.03;;;;;;;;;;5072628;28;20444;-67
2022/01/06 14:20:47;;;;;;;67.40;8.27;;;;;;;;;;5077258;28;20506;-67
2022/01/06 14:23:14;;;;;;;73.40;6.77;;;;;;;;;;5075140;28;20484;-66
2022/01/06 14:25:42;;;;;;;66.63;5.93;;;;;;;;;;5075177;28;20456;-64
2022/01/06 14:28:10;;;;;;;67.20;6.10;;;;;;;;;;5074197;28;20452;-67
2022/01/06 14:30:37;;;;;;;63.50;6.50;;;;;;;;;;5072508;28;20477;-67
2022/01/06 14:33:06;;;;;;;68.47;5.30;;;;;;;;;;5075370;28;20720;-66
2022/01/06 14:35:33;;;;;;;61.40;4.93;;;;;;;;;;5075102;28;20625;-68
2022/01/06 14:38:00;;;;;;;69.40;6.70;;;;;;;;;;5072773;28;20541;-66
2022/01/06 14:40:28;;;;;;;64.47;5.78;;;;;;;;;;5073779;28;20205;-65
2022/01/06 14:42:56;;;;;;;61.42;5.30;;;;;;;;;;5075611;28;20681;-67